createdAt,value
2018-01-07T00:00:19.180Z,4.47
2018-01-07T00:01:28.284Z,4.47
2018-01-07T00:02:37.113Z,4.51
2018-01-07T00:03:45.943Z,4.44
2018-01-07T00:04:55.043Z,4.41
2018-01-07T00:06:03.867Z,4.47
2018-01-07T00:07:12.697Z,4.44
2018-01-07T00:08:21.625Z,4.42
2018-01-07T00:09:30.452Z,4.42
2018-01-07T00:10:39.279Z,4.44
2018-01-07T00:11:48.107Z,4.47
2018-01-07T00:12:56.936Z,4.44
2018-01-07T00:14:05.912Z,4.45
2018-01-07T00:15:14.740Z,4.36
2018-01-07T00:16:23.573Z,4.29
2018-01-07T00:17:32.407Z,4.42
2018-01-07T00:18:41.237Z,4.33
2018-01-07T00:19:50.064Z,4.3
2018-01-07T00:20:58.890Z,4.23
2018-01-07T00:22:07.720Z,4.2
2018-01-07T00:23:16.824Z,4.18
2018-01-07T00:24:25.651Z,4.77
2018-01-07T00:25:34.858Z,4.5
2018-01-07T00:26:43.962Z,4.42
2018-01-07T00:27:52.790Z,4.69
2018-01-07T00:29:01.617Z,4.62
2018-01-07T00:30:10.446Z,4.4
2018-01-07T00:31:19.473Z,4.3
2018-01-07T00:32:28.298Z,4.29
2018-01-07T00:33:37.124Z,4.18
2018-01-07T00:34:45.951Z,4.16
2018-01-07T00:35:54.777Z,4.12
2018-01-07T00:37:03.657Z,4.04
2018-01-07T00:38:12.758Z,4.08
2018-01-07T00:39:21.582Z,4.02
2018-01-07T00:40:30.683Z,3.97
2018-01-07T00:41:39.510Z,3.97
2018-01-07T00:42:48.341Z,3.98
2018-01-07T00:43:57.166Z,3.94
2018-01-07T00:45:05.994Z,3.88
2018-01-07T00:46:14.821Z,3.87
2018-01-07T00:47:23.649Z,3.8
2018-01-07T00:48:32.725Z,3.91
2018-01-07T00:49:41.551Z,3.91
2018-01-07T00:50:50.377Z,3.87
2018-01-07T00:51:59.204Z,3.83
2018-01-07T00:53:08.030Z,3.83
2018-01-07T00:54:17.109Z,3.9
2018-01-07T00:55:25.932Z,3.93
2018-01-07T00:56:34.760Z,3.88
2018-01-07T00:57:43.588Z,3.78
2018-01-07T00:58:52.414Z,3.86
2018-01-07T01:00:01.242Z,3.84
2018-01-07T01:01:10.070Z,3.9
2018-01-07T01:02:18.895Z,3.93
2018-01-07T01:03:27.722Z,3.86
2018-01-07T01:04:36.548Z,3.86
2018-01-07T01:05:45.379Z,3.9
2018-01-07T01:06:54.206Z,3.8
2018-01-07T01:08:03.030Z,3.75
2018-01-07T01:09:11.854Z,3.7
2018-01-07T01:10:20.686Z,3.66
2018-01-07T01:11:29.587Z,3.69
2018-01-07T01:12:38.388Z,3.5
2018-01-07T01:13:47.215Z,3.55
2018-01-07T01:14:56.040Z,3.57
2018-01-07T01:16:04.864Z,3.52
2018-01-07T01:17:13.996Z,3.47
2018-01-07T01:18:22.821Z,3.58
2018-01-07T01:19:31.652Z,3.58
2018-01-07T01:20:40.750Z,3.52
2018-01-07T01:21:49.577Z,3.54
2018-01-07T01:22:58.508Z,3.54
2018-01-07T01:24:07.606Z,3.69
2018-01-07T01:25:16.437Z,3.54
2018-01-07T01:26:25.540Z,3.54
2018-01-07T01:27:34.363Z,3.57
2018-01-07T01:28:43.339Z,3.48
2018-01-07T01:29:52.163Z,3.36
2018-01-07T01:31:00.990Z,3.45
2018-01-07T01:32:09.817Z,3.7
2018-01-07T01:33:18.642Z,3.55
2018-01-07T01:34:27.520Z,3.48
2018-01-07T01:35:36.347Z,3.51
2018-01-07T01:36:45.175Z,3.51
2018-01-07T01:37:54.003Z,3.55
2018-01-07T01:39:02.830Z,3.54
2018-01-07T01:40:11.807Z,3.5
2018-01-07T01:41:20.910Z,3.47
2018-01-07T01:42:29.739Z,3.39
2018-01-07T01:43:38.566Z,3.62
2018-01-07T01:44:47.392Z,3.36
2018-01-07T01:45:56.218Z,3.33
2018-01-07T01:47:05.045Z,3.29
2018-01-07T01:48:13.870Z,3.28
2018-01-07T01:49:22.696Z,3.31
2018-01-07T01:50:31.522Z,3.18
2018-01-07T01:51:40.348Z,3.29
2018-01-07T01:52:49.174Z,3.29
2018-01-07T01:53:58.000Z,3.33
2018-01-07T01:55:06.827Z,3.35
2018-01-07T01:56:15.935Z,3.39
2018-01-07T01:57:24.909Z,3.33
2018-01-07T01:58:33.740Z,3.17
2018-01-07T01:59:42.561Z,3.26
2018-01-07T02:00:51.390Z,3.39
2018-01-07T02:02:00.218Z,3.31
2018-01-07T02:03:09.346Z,3.26
2018-01-07T02:04:18.171Z,3.24
2018-01-07T02:05:27.001Z,3.23
2018-01-07T02:06:35.822Z,3.17
2018-01-07T02:07:44.646Z,3.21
2018-01-07T02:08:53.620Z,3.21
2018-01-07T02:10:02.447Z,3.33
2018-01-07T02:11:11.271Z,3.29
2018-01-07T02:12:20.104Z,3.17
2018-01-07T02:13:28.929Z,3.18
2018-01-07T02:14:37.858Z,3.11
2018-01-07T02:15:46.682Z,3.1
2018-01-07T02:16:55.510Z,3.14
2018-01-07T02:18:04.628Z,3.05
2018-01-07T02:19:13.454Z,3.15
2018-01-07T02:20:22.326Z,3.1
2018-01-07T02:21:31.154Z,3.23
2018-01-07T02:22:39.975Z,3.23
2018-01-07T02:23:48.800Z,3.23
2018-01-07T02:24:57.627Z,3.15
2018-01-07T02:26:06.454Z,3.1
2018-01-07T02:27:15.280Z,3.1
2018-01-07T02:28:24.107Z,3.1
2018-01-07T02:29:32.935Z,3.08
2018-01-07T02:30:41.761Z,3.15
2018-01-07T02:31:50.590Z,3.15
2018-01-07T02:32:59.418Z,3.1
2018-01-07T02:34:08.243Z,3.08
2018-01-07T02:35:17.070Z,3.14
2018-01-07T02:36:26.169Z,3.03
2018-01-07T02:37:35.375Z,2.97
2018-01-07T02:38:44.201Z,3.03
2018-01-07T02:39:53.025Z,3.05
2018-01-07T02:41:01.853Z,3
2018-01-07T02:42:10.682Z,3.02
2018-01-07T02:43:19.559Z,3.15
2018-01-07T02:44:28.387Z,3
2018-01-07T02:45:37.217Z,2.96
2018-01-07T02:46:46.044Z,3.02
2018-01-07T02:47:54.867Z,3.02
2018-01-07T02:49:03.694Z,3.05
2018-01-07T02:50:12.526Z,2.97
2018-01-07T02:51:21.346Z,2.92
2018-01-07T02:52:30.445Z,2.9
2018-01-07T02:53:39.271Z,2.78
2018-01-07T02:54:48.147Z,2.82
2018-01-07T02:55:56.973Z,2.77
2018-01-07T02:57:05.798Z,2.79
2018-01-07T02:58:14.624Z,2.77
2018-01-07T02:59:23.732Z,2.77
2018-01-07T03:00:32.560Z,2.72
2018-01-07T03:01:41.382Z,2.75
2018-01-07T03:02:50.209Z,2.72
2018-01-07T03:03:59.034Z,2.69
2018-01-07T03:05:07.860Z,2.61
2018-01-07T03:06:16.685Z,2.69
2018-01-07T03:07:25.510Z,2.66
2018-01-07T03:08:34.336Z,2.71
2018-01-07T03:09:43.440Z,2.66
2018-01-07T03:10:52.266Z,2.74
2018-01-07T03:12:01.092Z,2.75
2018-01-07T03:13:09.916Z,2.66
2018-01-07T03:14:18.744Z,2.66
2018-01-07T03:15:27.565Z,2.63
2018-01-07T03:16:36.390Z,2.67
2018-01-07T03:17:45.317Z,2.71
2018-01-07T03:18:54.142Z,2.6
2018-01-07T03:20:02.968Z,2.63
2018-01-07T03:21:11.793Z,2.61
2018-01-07T03:22:20.617Z,2.64
2018-01-07T03:23:29.495Z,2.61
2018-01-07T03:24:38.319Z,2.53
2018-01-07T03:25:47.143Z,2.6
2018-01-07T03:26:55.968Z,2.6
2018-01-07T03:28:04.792Z,2.56
2018-01-07T03:29:13.872Z,2.54
2018-01-07T03:30:22.968Z,2.54
2018-01-07T03:31:31.796Z,2.52
2018-01-07T03:32:40.898Z,2.45
2018-01-07T03:33:49.723Z,2.42
2018-01-07T03:34:58.571Z,2.42
2018-01-07T03:36:07.373Z,2.43
2018-01-07T03:37:16.199Z,2.54
2018-01-07T03:38:25.026Z,2.45
2018-01-07T03:39:33.849Z,2.38
2018-01-07T03:40:43.075Z,2.3
2018-01-07T03:41:51.907Z,2.3
2018-01-07T03:43:00.725Z,2.31
2018-01-07T03:44:09.552Z,2.38
2018-01-07T03:45:18.652Z,2.36
2018-01-07T03:46:27.478Z,2.34
2018-01-07T03:47:36.301Z,2.35
2018-01-07T03:48:45.128Z,2.31
2018-01-07T03:49:53.953Z,2.27
2018-01-07T03:51:02.778Z,2.3
2018-01-07T03:52:11.603Z,2.24
2018-01-07T03:53:20.430Z,2.24
2018-01-07T03:54:29.257Z,2.27
2018-01-07T03:55:38.085Z,2.25
2018-01-07T03:56:46.907Z,2.25
2018-01-07T03:57:55.786Z,2.2
2018-01-07T03:59:04.883Z,2.16
2018-01-07T04:00:13.707Z,2.14
2018-01-07T04:01:22.534Z,2.42
2018-01-07T04:02:31.633Z,2.27
2018-01-07T04:03:40.506Z,2.2
2018-01-07T04:04:49.333Z,2.14
2018-01-07T04:05:58.159Z,1.98
2018-01-07T04:07:06.983Z,2.09
2018-01-07T04:08:15.809Z,2
2018-01-07T04:09:24.784Z,2.05
2018-01-07T04:10:33.608Z,1.87
2018-01-07T04:11:42.434Z,2.05
2018-01-07T04:12:51.532Z,2.18
2018-01-07T04:14:00.356Z,2.12
2018-01-07T04:15:09.482Z,2.05
2018-01-07T04:16:18.306Z,1.93
2018-01-07T04:17:27.134Z,1.93
2018-01-07T04:18:35.956Z,2
2018-01-07T04:19:44.777Z,2.03
2018-01-07T04:20:53.603Z,1.91
2018-01-07T04:22:02.431Z,1.99
2018-01-07T04:23:11.527Z,1.86
2018-01-07T04:24:20.350Z,1.83
2018-01-07T04:25:29.446Z,1.87
2018-01-07T04:26:38.321Z,1.86
2018-01-07T04:27:47.146Z,1.9
2018-01-07T04:28:55.972Z,1.88
2018-01-07T04:30:04.800Z,1.86
2018-01-07T04:31:13.625Z,1.83
2018-01-07T04:32:22.449Z,1.83
2018-01-07T04:33:31.275Z,1.8
2018-01-07T04:34:40.099Z,1.8
2018-01-07T04:35:48.925Z,1.83
2018-01-07T04:36:57.747Z,1.95
2018-01-07T04:38:06.726Z,1.93
2018-01-07T04:39:15.549Z,1.95
2018-01-07T04:40:24.376Z,1.83
2018-01-07T04:41:33.488Z,2
2018-01-07T04:42:42.589Z,1.81
2018-01-07T04:43:51.413Z,1.93
2018-01-07T04:45:00.238Z,1.83
2018-01-07T04:46:09.061Z,1.79
2018-01-07T04:47:17.888Z,1.79
2018-01-07T04:48:26.984Z,1.69
2018-01-07T04:49:35.909Z,1.7
2018-01-07T04:50:44.733Z,1.77
2018-01-07T04:51:53.557Z,1.79
2018-01-07T04:53:02.656Z,1.76
2018-01-07T04:54:11.482Z,1.69
2018-01-07T04:55:20.406Z,1.68
2018-01-07T04:56:29.230Z,1.6
2018-01-07T04:57:38.055Z,1.55
2018-01-07T04:58:46.882Z,1.62
2018-01-07T04:59:55.979Z,1.48
2018-01-07T05:01:04.904Z,1.47
2018-01-07T05:02:13.728Z,1.45
2018-01-07T05:03:22.550Z,1.52
2018-01-07T05:04:31.374Z,1.51
2018-01-07T05:05:40.198Z,1.52
2018-01-07T05:06:49.124Z,1.52
2018-01-07T05:07:57.949Z,1.45
2018-01-07T05:09:06.773Z,1.42
2018-01-07T05:10:15.604Z,1.48
2018-01-07T05:11:24.700Z,1.37
2018-01-07T05:12:33.624Z,1.37
2018-01-07T05:13:42.730Z,1.37
2018-01-07T05:14:51.827Z,1.42
2018-01-07T05:16:00.650Z,1.45
2018-01-07T05:17:09.474Z,1.42
2018-01-07T05:18:18.399Z,1.41
2018-01-07T05:19:27.222Z,1.29
2018-01-07T05:20:36.047Z,1.24
2018-01-07T05:21:44.869Z,1.32
2018-01-07T05:22:53.698Z,1.29
2018-01-07T05:24:02.671Z,1.27
2018-01-07T05:25:11.497Z,1.3
2018-01-07T05:26:20.873Z,1.29
2018-01-07T05:27:29.697Z,1.36
2018-01-07T05:28:39.084Z,1.34
2018-01-07T05:29:48.331Z,1.4
2018-01-07T05:30:57.154Z,1.27
2018-01-07T05:32:05.982Z,1.29
2018-01-07T05:33:14.802Z,1.24
2018-01-07T05:34:23.629Z,1.22
2018-01-07T05:35:32.554Z,1.24
2018-01-07T05:36:41.378Z,1.15
2018-01-07T05:37:50.201Z,1.2
2018-01-07T05:38:59.028Z,1.18
2018-01-07T05:40:07.853Z,1.15
2018-01-07T05:41:16.776Z,1.08
2018-01-07T05:42:25.600Z,1.12
2018-01-07T05:43:34.424Z,1.2
2018-01-07T05:44:43.247Z,1.12
2018-01-07T05:45:52.113Z,1.14
2018-01-07T05:47:01.048Z,1.12
2018-01-07T05:48:09.875Z,1.15
2018-01-07T05:49:18.701Z,1.11
2018-01-07T05:50:27.524Z,1.08
2018-01-07T05:51:36.346Z,1.09
2018-01-07T05:52:45.221Z,1.09
2018-01-07T05:53:54.042Z,1.06
2018-01-07T05:55:02.866Z,1.06
2018-01-07T05:56:11.689Z,1.02
2018-01-07T05:57:20.510Z,1.09
2018-01-07T05:58:29.488Z,1.02
2018-01-07T05:59:38.310Z,1.09
2018-01-07T06:00:47.136Z,1.06
2018-01-07T06:01:55.960Z,0.98
2018-01-07T06:03:05.057Z,1.05
2018-01-07T06:04:13.982Z,0.98
2018-01-07T06:05:22.806Z,1.11
2018-01-07T06:06:31.632Z,1.08
2018-01-07T06:07:40.455Z,1
2018-01-07T06:08:49.278Z,0.98
2018-01-07T06:09:58.405Z,0.97
2018-01-07T06:11:07.229Z,1.02
2018-01-07T06:12:16.054Z,0.93
2018-01-07T06:13:24.880Z,0.91
2018-01-07T06:14:33.705Z,1.05
2018-01-07T06:15:42.831Z,1.05
2018-01-07T06:16:51.934Z,0.94
2018-01-07T06:18:00.752Z,0.9
2018-01-07T06:19:09.580Z,0.97
2018-01-07T06:20:18.404Z,0.94
2018-01-07T06:21:27.329Z,1.04
2018-01-07T06:22:36.153Z,1.06
2018-01-07T06:23:44.979Z,0.94
2018-01-07T06:24:53.801Z,0.91
2018-01-07T06:26:02.629Z,0.87
2018-01-07T06:27:11.566Z,0.8
2018-01-07T06:28:20.682Z,0.88
2018-01-07T06:29:29.507Z,0.86
2018-01-07T06:30:38.607Z,0.79
2018-01-07T06:31:47.430Z,0.8
2018-01-07T06:32:56.355Z,0.79
2018-01-07T06:34:05.179Z,0.84
2018-01-07T06:35:14.005Z,0.78
2018-01-07T06:36:22.827Z,0.73
2018-01-07T06:37:31.651Z,0.68
2018-01-07T06:38:40.482Z,0.76
2018-01-07T06:39:49.583Z,0.75
2018-01-07T06:40:58.409Z,0.78
2018-01-07T06:42:07.235Z,0.8
2018-01-07T06:43:16.062Z,0.73
2018-01-07T06:44:25.039Z,0.75
2018-01-07T06:45:33.860Z,0.7
2018-01-07T06:46:42.959Z,0.69
2018-01-07T06:47:51.782Z,0.69
2018-01-07T06:49:00.604Z,0.76
2018-01-07T06:50:09.427Z,0.66
2018-01-07T06:51:18.258Z,0.88
2018-01-07T06:52:27.084Z,0.79
2018-01-07T06:53:35.907Z,0.69
2018-01-07T06:54:45.005Z,0.75
2018-01-07T06:55:54.129Z,0.68
2018-01-07T06:57:02.953Z,0.76
2018-01-07T06:58:11.781Z,0.68
2018-01-07T06:59:20.604Z,0.75
2018-01-07T07:00:29.442Z,0.66
2018-01-07T07:01:38.256Z,0.68
2018-01-07T07:02:47.078Z,0.61
2018-01-07T07:03:55.904Z,0.51
2018-01-07T07:05:04.732Z,0.69
2018-01-07T07:06:13.555Z,0.65
2018-01-07T07:07:22.802Z,0.62
2018-01-07T07:08:31.626Z,0.62
2018-01-07T07:09:40.451Z,0.69
2018-01-07T07:10:49.278Z,0.57
2018-01-07T07:11:58.105Z,0.6
2018-01-07T07:13:07.200Z,0.65
2018-01-07T07:14:16.026Z,0.62
2018-01-07T07:15:24.852Z,0.6
2018-01-07T07:16:33.675Z,0.53
2018-01-07T07:17:42.773Z,0.41
2018-01-07T07:18:51.746Z,0.6
2018-01-07T07:20:00.573Z,0.44
2018-01-07T07:21:09.397Z,0.44
2018-01-07T07:22:18.223Z,0.42
2018-01-07T07:23:27.050Z,0.53
2018-01-07T07:24:35.873Z,0.42
2018-01-07T07:25:44.697Z,0.46
2018-01-07T07:26:53.522Z,0.41
2018-01-07T07:28:02.344Z,0.42
2018-01-07T07:29:11.171Z,0.47
2018-01-07T07:30:19.995Z,0.41
2018-01-07T07:31:28.820Z,0.42
2018-01-07T07:32:37.644Z,0.36
2018-01-07T07:33:46.745Z,0.35
2018-01-07T07:34:55.621Z,0.38
2018-01-07T07:36:04.497Z,0.44
2018-01-07T07:37:13.319Z,0.41
2018-01-07T07:38:22.145Z,0.38
2018-01-07T07:39:30.971Z,0.38
2018-01-07T07:40:39.797Z,0.42
2018-01-07T07:41:48.924Z,0.55
2018-01-07T07:42:57.808Z,0.53
2018-01-07T07:44:06.623Z,0.51
2018-01-07T07:45:15.449Z,0.36
2018-01-07T07:46:24.273Z,0.44
2018-01-07T07:47:33.097Z,0.41
2018-01-07T07:48:41.920Z,0.41
2018-01-07T07:49:51.021Z,0.39
2018-01-07T07:50:59.848Z,0.38
2018-01-07T07:52:08.674Z,0.36
2018-01-07T07:53:17.498Z,0.42
2018-01-07T07:54:26.329Z,0.38
2018-01-07T07:55:35.223Z,0.42
2018-01-07T07:56:44.049Z,0.49
2018-01-07T07:57:52.872Z,0.47
2018-01-07T07:59:01.698Z,0.44
2018-01-07T08:00:10.523Z,0.38
2018-01-07T08:01:19.348Z,0.51
2018-01-07T08:02:28.173Z,0.39
2018-01-07T08:03:36.995Z,0.36
2018-01-07T08:04:45.822Z,0.51
2018-01-07T08:05:54.647Z,0.53
2018-01-07T08:07:03.752Z,0.42
2018-01-07T08:08:12.578Z,0.57
2018-01-07T08:09:21.683Z,0.58
2018-01-07T08:10:30.509Z,0.42
2018-01-07T08:11:39.333Z,0.61
2018-01-07T08:12:48.158Z,0.5
2018-01-07T08:13:56.981Z,0.53
2018-01-07T08:15:05.806Z,0.49
2018-01-07T08:16:14.634Z,0.49
2018-01-07T08:17:23.466Z,0.46
2018-01-07T08:18:32.302Z,0.44
2018-01-07T08:19:41.129Z,0.39
2018-01-07T08:20:49.952Z,0.42
2018-01-07T08:21:59.053Z,0.36
2018-01-07T08:23:07.879Z,0.44
2018-01-07T08:24:16.978Z,0.44
2018-01-07T08:25:25.806Z,0.5
2018-01-07T08:26:34.630Z,0.55
2018-01-07T08:27:43.460Z,0.41
2018-01-07T08:28:52.283Z,0.61
2018-01-07T08:30:01.362Z,0.49
2018-01-07T08:31:10.186Z,0.53
2018-01-07T08:32:19.012Z,0.47
2018-01-07T08:33:27.834Z,0.44
2018-01-07T08:34:36.660Z,0.53
2018-01-07T08:35:45.485Z,0.38
2018-01-07T08:36:54.308Z,0.47
2018-01-07T08:38:03.132Z,0.47
2018-01-07T08:39:11.961Z,0.35
2018-01-07T08:40:20.786Z,0.41
2018-01-07T08:41:29.909Z,0.42
2018-01-07T08:42:38.735Z,0.5
2018-01-07T08:43:47.561Z,0.5
2018-01-07T08:44:56.387Z,0.39
2018-01-07T08:46:05.209Z,0.44
2018-01-07T08:47:14.184Z,0.47
2018-01-07T08:48:23.008Z,0.47
2018-01-07T08:49:31.832Z,0.41
2018-01-07T08:50:40.656Z,0.39
2018-01-07T08:51:49.482Z,0.39
2018-01-07T08:52:58.459Z,0.41
2018-01-07T08:54:07.282Z,0.38
2018-01-07T08:55:16.107Z,0.39
2018-01-07T08:56:24.933Z,0.44
2018-01-07T08:57:34.032Z,0.39
2018-01-07T08:58:42.856Z,0.42
2018-01-07T08:59:51.955Z,0.39
2018-01-07T09:01:00.789Z,0.42
2018-01-07T09:02:09.906Z,0.47
2018-01-07T09:03:18.731Z,0.44
2018-01-07T09:04:28.001Z,0.44
2018-01-07T09:05:36.826Z,0.42
2018-01-07T09:06:45.719Z,0.57
2018-01-07T09:07:54.542Z,0.38
2018-01-07T09:09:03.368Z,0.42
2018-01-07T09:10:12.194Z,0.46
2018-01-07T09:11:21.295Z,0.42
2018-01-07T09:12:30.122Z,0.44
2018-01-07T09:13:38.948Z,0.51
2018-01-07T09:14:47.772Z,0.57
2018-01-07T09:15:56.745Z,0.49
2018-01-07T09:17:05.674Z,0.57
2018-01-07T09:18:14.510Z,0.57
2018-01-07T09:19:23.337Z,0.55
2018-01-07T09:20:32.435Z,0.55
2018-01-07T09:21:41.312Z,0.46
2018-01-07T09:22:50.407Z,0.44
2018-01-07T09:23:59.235Z,0.42
2018-01-07T09:25:08.059Z,0.5
2018-01-07T09:26:16.885Z,0.51
2018-01-07T09:27:25.861Z,0.5
2018-01-07T09:28:34.686Z,0.51
2018-01-07T09:29:43.509Z,0.72
2018-01-07T09:30:52.343Z,0.66
2018-01-07T09:32:01.169Z,0.72
2018-01-07T09:33:10.044Z,0.79
2018-01-07T09:34:18.868Z,0.7
2018-01-07T09:35:27.693Z,0.78
2018-01-07T09:36:36.516Z,0.73
2018-01-07T09:37:45.342Z,0.69
2018-01-07T09:38:54.368Z,0.75
2018-01-07T09:40:03.194Z,0.86
2018-01-07T09:41:12.021Z,0.84
2018-01-07T09:42:21.120Z,0.76
2018-01-07T09:43:29.946Z,0.8
2018-01-07T09:44:38.769Z,0.8
2018-01-07T09:45:47.596Z,0.88
2018-01-07T09:46:56.418Z,0.79
2018-01-07T09:48:05.247Z,0.87
2018-01-07T09:49:14.071Z,0.8
2018-01-07T09:50:23.198Z,0.86
2018-01-07T09:51:32.296Z,0.96
2018-01-07T09:52:41.400Z,1.04
2018-01-07T09:53:50.566Z,1.11
2018-01-07T09:54:59.408Z,1.09
2018-01-07T09:56:08.335Z,1.06
2018-01-07T09:57:17.436Z,0.96
2018-01-07T09:58:26.265Z,0.93
2018-01-07T09:59:35.087Z,1.06
2018-01-07T10:00:43.915Z,0.91
2018-01-07T10:01:53.039Z,1.02
2018-01-07T10:03:01.868Z,1.04
2018-01-07T10:04:10.965Z,1.04
2018-01-07T10:05:19.790Z,1.11
2018-01-07T10:06:28.617Z,1.22
2018-01-07T10:07:37.543Z,1.12
2018-01-07T10:08:46.367Z,1.14
2018-01-07T10:09:55.464Z,1.16
2018-01-07T10:11:04.286Z,1.2
2018-01-07T10:12:13.110Z,1.16
2018-01-07T10:13:22.038Z,1.27
2018-01-07T10:14:31.469Z,1.42
2018-01-07T10:15:40.246Z,1.42
2018-01-07T10:16:49.077Z,1.48
2018-01-07T10:17:57.952Z,1.37
2018-01-07T10:19:07.160Z,1.36
2018-01-07T10:20:15.985Z,1.4
2018-01-07T10:21:24.815Z,1.42
2018-01-07T10:22:33.640Z,1.58
2018-01-07T10:23:42.465Z,1.54
2018-01-07T10:24:51.532Z,1.42
2018-01-07T10:26:00.363Z,1.42
2018-01-07T10:27:09.472Z,1.42
2018-01-07T10:28:18.579Z,1.42
2018-01-07T10:29:27.676Z,1.47
2018-01-07T10:30:36.503Z,1.48
2018-01-07T10:31:45.328Z,1.45
2018-01-07T10:32:54.154Z,1.5
2018-01-07T10:34:02.981Z,1.45
2018-01-07T10:35:11.808Z,1.52
2018-01-07T10:36:20.635Z,1.58
2018-01-07T10:37:29.458Z,1.54
2018-01-07T10:38:38.285Z,1.63
2018-01-07T10:39:47.109Z,1.65
2018-01-07T10:40:55.939Z,1.66
2018-01-07T10:42:04.915Z,1.65
2018-01-07T10:43:13.743Z,1.76
2018-01-07T10:44:22.567Z,1.66
2018-01-07T10:45:31.664Z,1.65
2018-01-07T10:46:40.767Z,1.68
2018-01-07T10:47:49.694Z,1.66
2018-01-07T10:48:58.793Z,1.66
2018-01-07T10:50:07.619Z,1.7
2018-01-07T10:51:16.444Z,1.68
2018-01-07T10:52:25.272Z,1.76
2018-01-07T10:53:34.145Z,1.77
2018-01-07T10:54:42.977Z,1.73
2018-01-07T10:55:51.802Z,1.79
2018-01-07T10:57:00.627Z,1.77
2018-01-07T10:58:09.454Z,1.81
2018-01-07T10:59:18.279Z,1.84
2018-01-07T11:00:27.106Z,1.81
2018-01-07T11:01:35.931Z,1.86
2018-01-07T11:02:44.759Z,1.86
2018-01-07T11:03:53.585Z,1.91
2018-01-07T11:05:02.711Z,2.02
2018-01-07T11:06:11.539Z,1.98
2018-01-07T11:07:20.366Z,2.05
2018-01-07T11:08:29.191Z,2
2018-01-07T11:09:38.017Z,2.03
2018-01-07T11:10:47.444Z,1.99
2018-01-07T11:11:56.271Z,2.07
2018-01-07T11:13:05.096Z,2.09
2018-01-07T11:14:13.926Z,2.06
2018-01-07T11:15:22.751Z,2.12
2018-01-07T11:16:31.577Z,2.1
2018-01-07T11:17:40.405Z,2.06
2018-01-07T11:18:49.231Z,2.12
2018-01-07T11:19:58.058Z,2.1
2018-01-07T11:21:06.886Z,2.16
2018-01-07T11:22:15.814Z,2.17
2018-01-07T11:23:24.640Z,2.14
2018-01-07T11:24:33.465Z,2.17
2018-01-07T11:25:42.294Z,2.17
2018-01-07T11:26:51.120Z,2.24
2018-01-07T11:28:00.320Z,2.21
2018-01-07T11:29:09.150Z,2.2
2018-01-07T11:30:17.976Z,2.24
2018-01-07T11:31:26.803Z,2.21
2018-01-07T11:32:35.632Z,2.18
2018-01-07T11:33:44.460Z,2.35
2018-01-07T11:34:53.291Z,2.31
2018-01-07T11:36:02.114Z,2.3
2018-01-07T11:37:10.942Z,2.28
2018-01-07T11:38:19.766Z,2.34
2018-01-07T11:39:28.640Z,2.38
2018-01-07T11:40:37.470Z,2.42
2018-01-07T11:41:46.293Z,2.43
2018-01-07T11:42:55.123Z,2.36
2018-01-07T11:44:04.223Z,2.39
2018-01-07T11:45:13.051Z,2.48
2018-01-07T11:46:22.216Z,2.38
2018-01-07T11:47:31.438Z,2.43
2018-01-07T11:48:40.630Z,2.41
2018-01-07T11:49:49.699Z,2.48
2018-01-07T11:50:58.683Z,2.57
2018-01-07T11:52:07.510Z,2.53
2018-01-07T11:53:16.339Z,2.49
2018-01-07T11:54:25.163Z,2.57
2018-01-07T11:55:34.262Z,2.49
2018-01-07T11:56:43.093Z,2.45
2018-01-07T11:57:51.925Z,2.49
2018-01-07T11:59:00.754Z,2.46
2018-01-07T12:00:09.573Z,2.56
2018-01-07T12:01:18.401Z,2.59
2018-01-07T12:02:27.429Z,2.56
2018-01-07T12:03:36.261Z,2.63
2018-01-07T12:04:45.639Z,2.66
2018-01-07T12:05:54.464Z,2.82
2018-01-07T12:07:03.291Z,2.77
2018-01-07T12:08:12.276Z,2.67
2018-01-07T12:09:21.093Z,2.79
2018-01-07T12:10:29.924Z,2.75
2018-01-07T12:11:39.030Z,2.67
2018-01-07T12:12:47.855Z,2.6
2018-01-07T12:13:56.734Z,2.59
2018-01-07T12:15:05.560Z,2.63
2018-01-07T12:16:14.384Z,2.67
2018-01-07T12:17:23.211Z,2.81
2018-01-07T12:18:32.037Z,2.74
2018-01-07T12:19:41.114Z,2.81
2018-01-07T12:20:49.941Z,2.72
2018-01-07T12:21:58.769Z,2.71
2018-01-07T12:23:07.597Z,2.75
2018-01-07T12:24:16.457Z,2.72
2018-01-07T12:25:25.496Z,2.64
2018-01-07T12:26:34.333Z,2.71
2018-01-07T12:27:43.167Z,2.71
2018-01-07T12:28:52.000Z,2.66
2018-01-07T12:30:00.833Z,2.64
2018-01-07T12:31:09.810Z,2.72
2018-01-07T12:32:18.639Z,2.72
2018-01-07T12:33:27.464Z,2.78
2018-01-07T12:34:36.768Z,2.9
2018-01-07T12:35:45.598Z,2.79
2018-01-07T12:36:54.572Z,2.75
2018-01-07T12:38:03.440Z,2.74
2018-01-07T12:39:12.547Z,2.77
2018-01-07T12:40:21.377Z,2.81
2018-01-07T12:41:30.204Z,2.82
2018-01-07T12:42:39.456Z,2.92
2018-01-07T12:43:48.284Z,2.79
2018-01-07T12:44:57.112Z,2.95
2018-01-07T12:46:05.938Z,2.89
2018-01-07T12:47:14.765Z,2.89
2018-01-07T12:48:23.993Z,2.92
2018-01-07T12:49:32.820Z,2.84
2018-01-07T12:50:41.652Z,2.9
2018-01-07T12:51:50.501Z,2.77
2018-01-07T12:52:59.367Z,2.9
2018-01-07T12:54:08.313Z,2.89
2018-01-07T12:55:17.146Z,2.87
2018-01-07T12:56:25.976Z,2.99
2018-01-07T12:57:34.802Z,2.96
2018-01-07T12:58:43.629Z,2.92
2018-01-07T12:59:52.558Z,2.97
2018-01-07T13:01:01.397Z,2.93
2018-01-07T13:02:10.237Z,2.96
2018-01-07T13:03:19.065Z,2.93
2018-01-07T13:04:27.892Z,3.02
2018-01-07T13:05:36.880Z,2.95
2018-01-07T13:06:45.704Z,2.92
2018-01-07T13:07:54.547Z,3.03
2018-01-07T13:09:03.662Z,2.95
2018-01-07T13:10:12.492Z,2.99
2018-01-07T13:11:21.694Z,3
2018-01-07T13:12:30.529Z,2.9
2018-01-07T13:13:39.627Z,2.99
2018-01-07T13:14:48.730Z,2.97
2018-01-07T13:15:57.579Z,2.97
2018-01-07T13:17:06.706Z,3.08
2018-01-07T13:18:15.546Z,3.17
2018-01-07T13:19:24.371Z,3.18
2018-01-07T13:20:33.200Z,3.14
2018-01-07T13:21:42.028Z,3.11
2018-01-07T13:22:51.170Z,3.02
2018-01-07T13:24:00.291Z,3.05
2018-01-07T13:25:09.845Z,3
2018-01-07T13:26:18.988Z,2.99
2018-01-07T13:27:28.002Z,3
2018-01-07T13:28:36.860Z,2.93
2018-01-07T13:29:45.691Z,3.05
2018-01-07T13:30:54.533Z,2.96
2018-01-07T13:32:03.366Z,2.99
2018-01-07T13:33:12.194Z,3.03
2018-01-07T13:34:21.021Z,3.06
2018-01-07T13:35:29.848Z,3.02
2018-01-07T13:36:38.675Z,3.02
2018-01-07T13:37:47.504Z,3.08
2018-01-07T13:38:56.610Z,3.06
2018-01-07T13:40:05.488Z,3.08
2018-01-07T13:41:14.314Z,3.08
2018-01-07T13:42:23.446Z,3.1
2018-01-07T13:43:32.252Z,3.1
2018-01-07T13:44:41.078Z,3.08
2018-01-07T13:45:50.015Z,3.1
2018-01-07T13:46:58.837Z,3.11
2018-01-07T13:48:07.665Z,3.14
2018-01-07T13:49:16.493Z,3.08
2018-01-07T13:50:25.318Z,3.1
2018-01-07T13:51:34.294Z,3.23
2018-01-07T13:52:43.120Z,3.28
2018-01-07T13:53:51.948Z,3.32
2018-01-07T13:55:00.776Z,3.31
2018-01-07T13:56:09.604Z,3.36
2018-01-07T13:57:18.862Z,3.42
2018-01-07T13:58:27.691Z,3.36
2018-01-07T13:59:36.517Z,3.39
2018-01-07T14:00:45.345Z,3.39
2018-01-07T14:01:54.177Z,3.51
2018-01-07T14:03:03.106Z,3.5
2018-01-07T14:04:11.936Z,3.5
2018-01-07T14:05:20.809Z,3.51
2018-01-07T14:06:29.589Z,3.54
2018-01-07T14:07:38.416Z,3.54
2018-01-07T14:08:47.243Z,3.62
2018-01-07T14:09:56.076Z,3.54
2018-01-07T14:11:04.903Z,3.54
2018-01-07T14:12:13.730Z,3.58
2018-01-07T14:13:22.558Z,3.66
2018-01-07T14:14:31.387Z,3.66
2018-01-07T14:15:40.213Z,3.69
2018-01-07T14:16:49.046Z,3.86
2018-01-07T14:17:57.878Z,3.88
2018-01-07T14:19:07.003Z,4.02
2018-01-07T14:20:15.884Z,4.02
2018-01-07T14:21:24.989Z,4.26
2018-01-07T14:22:33.821Z,4.32
2018-01-07T14:23:42.651Z,4.41
2018-01-07T14:24:51.481Z,4.54
2018-01-07T14:26:00.415Z,4.6
2018-01-07T14:27:09.245Z,4.72
2018-01-07T14:28:18.077Z,4.78
2018-01-07T14:29:26.911Z,4.8
2018-01-07T14:30:35.744Z,4.86
2018-01-07T14:31:44.877Z,5
2018-01-07T14:32:53.717Z,4.96
2018-01-07T14:34:02.548Z,4.94
2018-01-07T14:35:11.381Z,4.8
2018-01-07T14:36:20.216Z,4.82
2018-01-07T14:37:29.102Z,4.7
2018-01-07T14:38:37.933Z,4.42
2018-01-07T14:39:47.044Z,4.4
2018-01-07T14:40:55.878Z,4.4
2018-01-07T14:42:04.711Z,4.22
2018-01-07T14:43:13.693Z,4.11
2018-01-07T14:44:22.525Z,4.06
2018-01-07T14:45:31.356Z,3.83
2018-01-07T14:46:40.188Z,3.84
2018-01-07T14:47:49.020Z,3.75
2018-01-07T14:48:57.850Z,3.72
2018-01-07T14:50:06.956Z,3.7
2018-01-07T14:51:15.786Z,3.65
2018-01-07T14:52:24.616Z,3.62
2018-01-07T14:53:33.445Z,3.5
2018-01-07T14:54:42.376Z,3.51
2018-01-07T14:55:51.483Z,3.45
2018-01-07T14:57:00.325Z,3.4
2018-01-07T14:58:09.150Z,3.36
2018-01-07T14:59:17.979Z,3.33
2018-01-07T15:00:26.908Z,3.26
2018-01-07T15:01:35.738Z,3.17
2018-01-07T15:02:44.565Z,3.18
2018-01-07T15:03:53.676Z,3.1
2018-01-07T15:05:02.783Z,3.14
2018-01-07T15:06:11.761Z,3.05
2018-01-07T15:07:20.589Z,3.06
2018-01-07T15:08:29.966Z,3.15
2018-01-07T15:09:39.074Z,2.97
2018-01-07T15:10:47.904Z,2.89
2018-01-07T15:11:56.736Z,2.75
2018-01-07T15:13:05.558Z,2.87
2018-01-07T15:14:14.445Z,2.93
2018-01-07T15:15:23.217Z,2.92
2018-01-07T15:16:32.040Z,2.72
2018-01-07T15:17:40.968Z,2.79
2018-01-07T15:18:49.798Z,2.77
2018-01-07T15:19:58.625Z,2.93
2018-01-07T15:21:07.456Z,2.79